CDT,Max TemperatureF,Mean TemperatureF,Min TemperatureF,Max Dew PointF,MeanDew PointF,Min DewpointF,Max Humidity, Mean Humidity, Min Humidity, Max Sea Level PressureIn, Mean Sea Level PressureIn, Min Sea Level PressureIn, Max VisibilityMiles, Mean VisibilityMiles, Min VisibilityMiles, Max Wind SpeedMPH, Mean Wind SpeedMPH, Max Gust SpeedMPH,PrecipitationIn, CloudCover, Events, WindDirDegrees
2013-3-1,61,52,43,40,36,32,76,54,31,30.17,30.11,30.04,10,10,10,21,10,25,0.00,0,,310
2013-3-2,52,45,38,33,28,25,70,56,42,30.26,30.19,30.13,10,10,10,21,11,28,0.00,3,,356
2013-3-3,55,45,35,36,28,23,70,53,35,30.30,30.22,30.15,10,10,10,14,7,16,0.00,0,,306
2013-3-4,70,55,40,55,47,36,89,71,52,30.14,30.05,29.96,10,10,7,23,12,35,0.00,3,,166
2013-3-5,76,65,53,59,53,41,90,63,36,30.19,30.03,29.94,10,10,10,26,12,32,T,4,,257
2013-3-6,62,54,45,45,34,27,66,46,25,30.33,30.26,30.19,10,10,10,21,11,25,0.00,0,,334
2013-3-7,62,53,43,44,36,31,80,56,32,30.35,30.28,30.23,10,10,9,16,6,20,0.00,0,,58
2013-3-8,71,57,42,49,43,34,93,63,33,30.30,30.23,30.18,10,9,5,10,4,20,0.00,0,,88
2013-3-9,71,61,51,60,54,48,84,71,57,30.17,30.08,29.95,10,8,4,18,10,30,0.00,0,,113
2013-3-10,76,70,63,65,61,57,90,77,64,29.99,29.92,29.88,10,9,6,25,13,32,0.02,4,,146
2013-3-11,67,57,46,65,49,40,96,72,47,30.02,29.94,29.84,10,8,2,26,12,36,0.64,6,Rain,317
2013-3-12,66,57,47,51,42,38,77,56,34,30.20,30.12,30.03,10,10,8,14,7,18,0.00,0,,338
2013-3-13,67,56,44,46,39,32,77,50,22,30.38,30.31,30.21,10,10,3,20,9,29,0.00,0,,353
2013-3-14,66,57,48,44,34,27,71,48,25,30.44,30.36,30.30,10,10,10,17,8,23,0.00,0,,12
2013-3-15,75,61,46,50,45,38,86,59,31,30.31,30.23,30.14,10,10,10,20,7,24,0.00,0,,222
2013-3-16,76,64,52,57,53,50,93,68,43,30.14,30.04,29.96,10,10,6,20,9,24,0.00,0,,193
2013-3-17,78,68,58,63,60,56,93,72,50,29.97,29.90,29.85,10,9,6,17,10,23,T,4,,158
2013-3-18,83,75,66,66,64,61,90,73,55,29.91,29.85,29.75,10,8,4,17,9,23,0.03,6,Rain,190
2013-3-19,74,67,60,63,56,49,90,72,53,30.02,29.96,29.89,10,10,8,21,10,25,0.00,2,,63
2013-3-20,69,62,55,61,46,34,90,60,29,30.16,30.04,29.96,10,10,9,23,11,28,0.02,2,Rain,21
2013-3-21,65,58,50,47,39,34,67,51,34,30.07,29.97,29.87,10,10,10,15,9,24,0.00,1,,94
2013-3-22,78,69,59,64,60,49,84,76,67,29.88,29.82,29.77,10,10,6,16,9,23,0.03,6,,114
2013-3-23,76,71,65,70,67,62,100,90,79,29.84,29.71,29.58,10,4,0,15,8,18,T,8,Fog,132
2013-3-24,72,61,49,68,56,36,93,62,31,29.99,29.74,29.60,10,8,3,24,16,35,T,4,,294
2013-3-25,60,51,41,37,30,26,65,44,23,30.25,30.14,30.02,10,10,10,23,14,31,0.00,0,,331
2013-3-26,56,49,41,32,27,22,57,44,30,30.40,30.33,30.26,10,10,10,18,13,47,0.00,0,,345
2013-3-27,60,50,40,41,34,30,80,57,33,30.44,30.36,30.29,10,10,10,16,6,21,0.00,0,,66
2013-3-28,68,55,42,49,44,40,92,66,40,30.36,30.30,30.25,10,10,8,14,5,21,0.00,0,,114
2013-3-29,73,61,48,56,51,43,93,69,44,30.32,30.25,30.19,10,9,6,16,6,21,0.00,1,,149
2013-3-30,76,66,55,59,54,51,93,71,49,30.19,30.12,30.03,10,10,8,20,8,23,0.00,1,,194
2013-3-31,81,70,58,65,61,57,100,79,58,30.04,29.98,29.90,10,6,0,30,7,44,0.34,4,Rain-Thunderstorm,208